Yulin, China
Current Conditions -  °F | °C
As of 6:00 AM on Thursday 29 Jan 2015 (Local Time) from ZBYN Reporting Station
Haze Haze  
Wind Chill: 13°   Ceiling: Unl
Heat Index: 19°   Visibility: 1.1mi
Dew Point: 18°   Wind: 4mph
Humidity: 93%   Direction: 160°SSE
Pressure: 30.27"   Gusts: NA
Location:  38.23°N, 109.7°E
Report Text: ZBYN 282200Z 16002MPS 1800 BR NSC M07/M08 Q1025 BECMGTL23201400 BR
Loading
Personal Weather Stations






























Interactive Weather Map New forecast layout! Learn more

10-Day Weather Forecast

Advertisements
Track Severe Weather on mobile